Time;durP1;ratioP1;P1;durP2;ratioP2;P2;SDS_P1;SDS_P2;PMS_P1;PMS_P2;Temp;Humidity;BMP_temperature;BMP_pressure;BME280_temperature;BME280_humidity;BME280_pressure;Samples;Min_cycle;Max_cycle;Signal;HPM_P1;HPM_P2
2022/06/02 00:02:27;;;;;;;8.55;6.20;;;;;;;20.32;45.53;93422.03;5013441;28;20048;-90
2022/06/02 00:05:03;;;;;;;10.43;6.32;;;;;;;20.30;45.69;93427.31;5015412;28;20562;-90
2022/06/02 00:07:52;;;;;;;8.85;6.40;;;;;;;20.30;45.81;93432.81;5013363;28;20052;-90
2022/06/02 00:10:21;;;;;;;9.23;5.95;;;;;;;20.32;45.68;93436.50;5013132;28;20053;-91
2022/06/02 00:12:56;;;;;;;10.25;5.82;;;;;;;20.29;45.83;93432.06;5013555;28;20243;-90
2022/06/02 00:15:31;;;;;;;8.93;5.75;;;;;;;20.29;45.92;93429.31;4980682;28;20034;-90
2022/06/02 00:18:06;;;;;;;9.23;5.43;;;;;;;20.28;45.78;93424.34;4995951;28;20045;-90
2022/06/02 00:21:04;;;;;;;7.78;5.55;;;;;;;20.27;45.58;93420.84;4997850;28;20050;-90
2022/06/02 00:23:47;;;;;;;9.32;6.50;;;;;;;20.27;45.91;93429.09;4984872;28;20041;-90
2022/06/02 00:26:21;;;;;;;10.23;6.50;;;;;;;20.28;45.87;93427.09;5026757;28;20072;-90
2022/06/02 00:28:59;;;;;;;9.93;6.20;;;;;;;20.26;45.78;93422.13;5049925;28;20037;-91
2022/06/02 00:31:39;;;;;;;8.43;5.90;;;;;;;20.29;45.64;93431.31;5032974;28;20040;-91
2022/06/02 00:34:42;;;;;;;9.73;6.28;;;;;;;20.28;45.84;93427.09;5031910;28;20083;-90
2022/06/02 00:37:21;;;;;;;9.15;5.72;;;;;;;20.28;45.50;93425.09;5048704;28;20037;-91
2022/06/02 00:39:47;;;;;;;6.53;5.10;;;;;;;20.26;45.82;93416.63;5049758;28;20045;-90
2022/06/02 00:42:34;;;;;;;7.78;5.53;;;;;;;20.26;45.77;93432.34;5033031;28;20041;-90
2022/06/02 00:45:04;;;;;;;9.07;5.28;;;;;;;20.24;45.86;93430.13;5032597;28;20040;-91
2022/06/02 00:47:47;;;;;;;10.10;6.05;;;;;;;20.26;45.87;93424.88;5026896;28;20045;-90
2022/06/02 00:50:31;;;;;;;7.05;4.97;;;;;;;20.25;45.69;93419.91;5031556;28;20069;-91
2022/06/02 00:53:28;;;;;;;10.77;5.40;;;;;;;20.26;45.51;93415.88;5032262;28;20076;-91
2022/06/02 00:59:31;;;;;;;7.70;5.68;;;;;;;20.24;45.71;93430.13;4972701;28;20409;-91
2022/06/02 01:01:57;;;;;;;8.15;5.90;;;;;;;20.24;45.68;93432.13;4958974;28;20042;-90
2022/06/02 01:04:22;;;;;;;6.90;4.75;;;;;;;20.24;45.95;93430.13;4933952;28;20506;-91
2022/06/02 01:07:10;;;;;;;7.00;5.35;;;;;;;20.24;45.59;93432.88;4937420;28;20077;-91
2022/06/02 01:09:51;;;;;;;9.07;5.43;;;;;;;20.23;45.79;93431.41;4936129;28;20153;-91
2022/06/02 01:12:48;;;;;;;8.40;5.43;;;;;;;20.22;45.77;93435.41;4949508;28;20117;-90
2022/06/02 01:15:35;;;;;;;7.80;5.13;;;;;;;20.24;45.71;93443.13;4952103;28;20046;-91
2022/06/02 01:18:15;;;;;;;7.07;4.90;;;;;;;20.23;45.78;93441.63;4949027;28;20130;-90
2022/06/02 01:21:00;;;;;;;8.48;5.20;;;;;;;20.24;45.58;93443.13;4933560;29;20109;-91
2022/06/02 01:23:44;;;;;;;6.60;4.72;;;;;;;20.22;45.72;93438.16;4933014;28;20110;-91
2022/06/02 01:26:25;;;;;;;7.18;5.07;;;;;;;20.22;45.55;93429.91;4932188;29;20053;-91
2022/06/02 01:29:01;;;;;;;8.55;5.25;;;;;;;20.22;45.74;93432.66;4932567;29;20051;-91
2022/06/02 01:31:48;;;;;;;6.70;4.97;;;;;;;20.22;45.77;93434.66;4948528;29;20214;-90
2022/06/02 01:34:20;;;;;;;8.30;5.47;;;;;;;20.21;45.80;93433.91;4949613;28;20039;-90
2022/06/02 01:36:55;;;;;;;6.78;4.88;;;;;;;20.20;45.82;93438.66;5022182;28;20041;-91
2022/06/02 01:39:36;;;;;;;7.35;4.97;;;;;;;20.22;45.83;93449.13;5025463;28;20052;-91
2022/06/02 01:42:20;;;;;;;7.93;5.00;;;;;;;20.21;45.56;93433.91;5010427;28;20039;-91
2022/06/02 01:44:58;;;;;;;8.02;5.93;;;;;;;20.20;45.92;93441.41;5027191;28;20508;-91
2022/06/02 01:47:37;;;;;;;6.40;5.10;;;;;;;20.20;45.62;93440.66;5027079;28;20048;-91
2022/06/02 01:50:31;;;;;;;8.43;5.43;;;;;;;20.19;45.63;93437.19;5009147;28;20559;-91
2022/06/02 01:53:15;;;;;;;7.00;4.53;;;;;;;20.19;45.71;93434.44;5028626;28;20049;-91
2022/06/02 01:55:57;;;;;;;6.82;4.32;;;;;;;20.18;45.77;93443.94;5028292;28;20060;-90
2022/06/02 01:58:41;;;;;;;6.53;4.40;;;;;;;20.19;45.66;93450.91;5004673;28;20392;-91
2022/06/02 02:01:44;;;;;;;5.13;4.22;;;;;;;20.17;45.74;93442.44;4978010;28;20428;-89
2022/06/02 02:04:31;;;;;;;5.53;4.30;;;;;;;20.18;45.80;93452.16;5015597;28;20045;-91
2022/06/02 02:06:56;;;;;;;7.65;4.90;;;;;;;20.18;45.75;93438.44;5025356;28;20033;-91
2022/06/02 02:09:58;;;;;;;7.90;5.28;;;;;;;20.17;45.82;93445.19;5044089;28;20048;-90
2022/06/02 02:12:37;;;;;;;5.82;4.72;;;;;;;20.18;45.68;93451.44;5024774;28;20037;-91
2022/06/02 02:15:31;;;;;;;5.75;3.65;;;;;;;20.17;45.69;93447.94;4991010;28;20262;-91
2022/06/02 02:18:18;;;;;;;7.05;4.60;;;;;;;20.17;45.88;93453.44;5010885;28;20037;-90
2022/06/02 02:20:56;;;;;;;5.25;3.90;;;;;;;20.16;45.78;93454.69;5028591;28;20115;-90
2022/06/02 02:23:30;;;;;;;7.20;5.03;;;;;;;20.16;45.63;93446.47;5028458;28;20045;-91
2022/06/02 02:26:14;;;;;;;5.40;4.03;;;;;;;20.16;45.66;93448.47;5015317;28;20052;-91
2022/06/02 02:29:08;;;;;;;5.25;4.05;;;;;;;20.17;45.52;93447.19;5030760;28;20033;-92
2022/06/02 02:32:07;;;;;;;5.82;4.20;;;;;;;20.15;45.56;93439.47;5015365;28;20175;-90
2022/06/02 02:35:07;;;;;;;7.65;4.80;;;;;;;20.15;45.72;93442.22;5046827;28;20131;-90
2022/06/02 02:37:43;;;;;;;6.50;4.45;;;;;;;20.16;45.34;93451.19;5027547;28;20053;-91
2022/06/02 02:40:22;;;;;;;5.90;4.60;;;;;;;20.15;45.66;93446.97;5010057;28;20072;-91
2022/06/02 02:42:56;;;;;;;5.03;3.90;;;;;;;20.14;45.60;93448.97;5009376;28;20042;-91
2022/06/02 02:45:51;;;;;;;5.07;3.90;;;;;;;20.15;45.82;93449.72;5009778;28;20060;-92
2022/06/02 02:48:34;;;;;;;6.13;4.68;;;;;;;20.14;45.66;93453.72;5009045;28;20623;-90
2022/06/02 02:51:05;;;;;;;5.20;4.03;;;;;;;20.15;45.85;93450.47;5009222;28;20041;-90
2022/06/02 02:53:49;;;;;;;5.78;3.83;;;;;;;20.14;45.70;93448.25;5041690;28;20116;-90
2022/06/02 02:56:30;;;;;;;4.53;3.92;;;;;;;20.14;45.62;93451.72;5028661;28;20033;-91
2022/06/02 02:59:15;;;;;;;5.88;4.40;;;;;;;20.14;45.76;93451.72;5002987;28;20080;-91
2022/06/02 03:01:40;;;;;;;4.68;4.03;;;;;;;20.14;45.75;93467.44;4992946;28;20045;-91
2022/06/02 03:04:09;;;;;;;5.25;4.45;;;;;;;20.13;45.67;93466.72;5008916;28;20044;-91
2022/06/02 03:06:39;;;;;;;6.30;4.43;;;;;;;20.13;45.70;93469.47;5009878;28;20064;-90
2022/06/02 03:09:21;;;;;;;4.43;3.90;;;;;;;20.13;45.82;93464.00;4988507;28;20029;-91
2022/06/02 03:11:52;;;;;;;6.15;4.20;;;;;;;20.14;45.73;93473.69;4995268;28;20029;-91
2022/06/02 03:14:20;;;;;;;4.60;3.63;;;;;;;20.13;45.85;93472.22;5027059;28;20116;-90
2022/06/02 03:17:03;;;;;;;5.35;3.40;;;;;;;20.15;45.74;93469.69;5027423;28;20083;-90
2022/06/02 03:20:02;;;;;;;5.93;4.20;;;;;;;20.13;45.56;93469.47;5041815;28;20048;-91
2022/06/02 03:22:48;;;;;;;6.03;4.30;;;;;;;20.14;45.72;93470.94;5047437;28;20041;-91
2022/06/02 03:25:32;;;;;;;4.90;3.47;;;;;;;20.15;45.94;93482.66;5038066;28;20049;-90
2022/06/02 03:28:10;;;;;;;4.40;3.40;;;;;;;20.15;45.65;93488.88;5026955;28;20045;-90
2022/06/02 03:30:48;;;;;;;5.43;4.00;;;;;;;20.14;45.73;93490.16;5010498;28;20041;-90
2022/06/02 03:33:28;;;;;;;5.35;3.85;;;;;;;20.16;45.68;93495.13;5010573;28;20046;-90
2022/06/02 03:36:08;;;;;;;4.20;3.60;;;;;;;20.18;45.61;93498.09;5011292;28;20474;-91
2022/06/02 03:38:50;;;;;;;58.17;51.78;;;;;;;20.19;45.63;93502.31;4994855;28;20045;-92
2022/06/02 03:41:30;;;;;;;15.82;11.73;;;;;;;20.24;45.68;93506.25;5024560;28;20041;-92
2022/06/02 03:44:23;;;;;;;52.97;39.90;;;;;;;20.25;45.60;93500.25;5010731;28;20113;-87
2022/06/02 03:47:16;;;;;;;12.55;5.00;;;;;;;20.30;45.41;93491.19;5026814;28;20060;-89
2022/06/02 03:49:41;;;;;;;20.23;4.95;;;;;;;20.27;45.31;93488.75;5009697;28;20041;-89
2022/06/02 03:52:25;;;;;;;6.18;3.78;;;;;;;20.33;45.31;93501.13;5029802;28;20045;-89
2022/06/02 03:54:56;;;;;;;7.25;4.20;;;;;;;20.34;45.16;93497.13;5030832;28;20048;-90
2022/06/02 03:57:44;;;;;;;7.03;4.20;;;;;;;20.38;45.15;93494.09;5031289;28;20049;-92
2022/06/02 04:00:14;;;;;;;10.57;3.95;;;;;;;20.42;44.96;93489.78;5009496;28;20421;-92
2022/06/02 04:03:07;;;;;;;20.83;4.95;;;;;;;20.39;45.32;93495.56;5022814;28;20033;-91
2022/06/02 04:05:52;;;;;;;15.82;4.85;;;;;;;20.42;45.82;93497.28;5000434;28;20034;-91
2022/06/02 04:08:49;;;;;;;14.27;4.20;;;;;;;20.33;46.14;93503.88;5027096;28;20551;-94
2022/06/02 04:13:37;;;;;;;10.93;4.80;;;;;;;20.34;46.62;93499.88;5019693;28;20049;-94
2022/06/02 04:14:27;;;;;;;11.25;3.42;;;;;;;20.22;47.21;93506.03;5033225;28;20045;-94
2022/06/02 04:17:12;;;;;;;7.72;2.97;;;;;;;20.17;47.42;93516.56;5002094;28;20092;-93
2022/06/02 04:23:11;;;;;;;10.75;5.22;;;;;;;20.05;48.06;93512.50;5013557;28;20049;-95
2022/06/02 04:25:55;;;;;;;10.82;6.97;;;;;;;20.05;48.05;93511.75;5017642;28;21071;-94
2022/06/02 04:28:48;;;;;;;12.68;6.18;;;;;;;20.08;48.16;93507.97;5004909;28;20076;-93
2022/06/02 04:31:34;;;;;;;7.05;5.32;;;;;;;20.05;48.40;93517.97;5024491;28;20059;-95
2022/06/02 04:34:20;;;;;;;9.35;4.57;;;;;;;20.01;48.33;93525.03;5032341;28;20049;-92
2022/06/02 04:36:55;;;;;;;8.40;4.88;;;;;;;19.98;48.81;93526.78;5047905;28;20124;-92
2022/06/02 04:39:27;;;;;;;52.80;25.83;;;;;;;19.95;49.31;93521.59;5034140;28;20044;-94
2022/06/02 04:42:16;;;;;;;42.25;16.35;;;;;;;20.01;49.44;93512.03;5008878;28;20508;-91
2022/06/02 04:45:05;;;;;;;30.83;17.17;;;;;;;20.04;49.10;93511.00;5040914;28;20094;-92
2022/06/02 04:47:52;;;;;;;45.22;23.88;;;;;;;20.03;49.37;93519.75;5039263;28;20048;-93
2022/06/02 04:50:37;;;;;;;36.50;13.70;;;;;;;20.02;49.72;93521.75;5022759;28;20040;-93
2022/06/02 04:53:37;;;;;;;13.35;6.82;;;;;;;20.08;49.36;93529.94;5030681;28;20034;-93
2022/06/02 04:56:27;;;;;;;50.25;9.88;;;;;;;20.01;50.08;93527.75;5039561;28;20034;-92
2022/06/02 04:58:58;;;;;;;90.10;15.18;;;;;;;20.07;49.59;93528.44;5051446;28;20395;-93
2022/06/02 05:02:01;;;;;;;86.18;16.85;;;;;;;20.04;50.12;93532.97;5017073;28;20041;-92
2022/06/02 05:04:31;;;;;;;83.13;17.35;;;;;;;19.96;50.36;93529.31;5045324;28;20064;-90
2022/06/02 05:07:23;;;;;;;59.63;12.32;;;;;;;20.01;50.28;93528.50;5038660;28;20048;-92
2022/06/02 05:10:17;;;;;;;75.93;14.90;;;;;;;20.00;50.07;93542.75;5041717;28;20045;-92
2022/06/02 05:13:07;;;;;;;69.00;17.88;;;;;;;20.02;50.21;93542.97;5045202;28;20045;-91
2022/06/02 05:16:00;;;;;;;58.25;19.95;;;;;;;20.02;50.11;93548.44;5046482;28;20044;-91
2022/06/02 05:18:30;;;;;;;53.63;19.17;;;;;;;20.07;50.52;93553.13;5059169;28;20707;-89
2022/06/02 05:21:10;;;;;;;50.60;17.08;;;;;;;20.09;50.40;93553.38;5047325;28;20051;-92
2022/06/02 05:23:58;;;;;;;93.50;25.50;;;;;;;20.05;50.26;93550.16;5018370;28;20045;-90
2022/06/02 05:26:44;;;;;;;158.40;36.33;;;;;;;20.11;50.24;93550.84;5039320;28;20049;-90
2022/06/02 05:29:16;;;;;;;52.03;17.75;;;;;;;20.03;50.64;93556.16;5028695;28;20037;-87
2022/06/02 05:32:01;;;;;;;54.63;27.02;;;;;;;20.03;50.46;93558.19;5015641;28;20049;-89
2022/06/02 05:34:41;;;;;;;61.90;25.10;;;;;;;20.12;50.25;93560.56;5025064;28;20057;-90
2022/06/02 05:37:18;;;;;;;134.70;53.45;;;;;;;20.11;50.04;93559.81;5049248;28;20056;-92
2022/06/02 05:40:17;;;;;;;152.73;51.45;;;;;;;20.11;50.31;93556.34;5016381;28;20049;-89
2022/06/02 05:43:07;;;;;;;155.45;49.47;;;;;;;20.14;50.03;93560.75;5026645;28;20049;-93
2022/06/02 05:45:52;;;;;;;194.45;79.55;;;;;;;20.10;50.46;93565.81;4987266;28;20081;-92
2022/06/02 05:48:28;;;;;;;126.90;55.47;;;;;;;20.08;50.28;93576.59;5013475;28;20067;-92
2022/06/02 05:51:24;;;;;;;203.45;93.57;;;;;;;20.10;50.30;93576.81;4997798;28;20067;-91
2022/06/02 05:54:05;;;;;;;125.18;50.00;;;;;;;20.08;50.44;93571.84;5024034;28;20048;-89
2022/06/02 05:56:30;;;;;;;;;;;;;;;20.17;49.98;93565.97;4986673;28;20191;-91
2022/06/02 05:59:21;;;;;;;162.82;53.45;;;;;;;20.19;50.08;93566.19;5022860;28;20007;-89
2022/06/02 06:02:06;;;;;;;155.37;50.63;;;;;;;20.18;50.09;93569.44;5036340;28;20052;-90
2022/06/02 06:05:01;;;;;;;205.70;60.67;;;;;;;20.17;50.10;93579.69;4992896;28;20346;-90
2022/06/02 06:07:30;;;;;;;130.10;45.25;;;;;;;20.19;50.00;93579.91;5019842;28;20128;-91
2022/06/02 06:10:20;;;;;;;106.45;37.92;;;;;;;20.22;50.02;93582.88;5027712;28;20570;-88
2022/06/02 06:13:17;;;;;;;44.85;21.25;;;;;;;20.28;50.62;93584.31;5020549;28;20599;-89
2022/06/02 06:16:01;;;;;;;58.40;23.55;;;;;;;20.27;50.36;93596.56;4993813;28;20033;-90
2022/06/02 06:18:34;;;;;;;40.55;18.35;;;;;;;20.23;50.38;93598.09;5018374;28;20129;-91
2022/06/02 06:21:10;;;;;;;48.15;20.98;;;;;;;20.31;50.02;93599.00;5011592;28;20391;-84
2022/06/02 06:23:54;;;;;;;42.83;18.15;;;;;;;20.36;49.91;93596.16;5026440;28;20412;-87
2022/06/02 06:26:28;;;;;;;74.78;43.63;;;;;;;20.30;49.93;93594.78;5056517;28;20048;-89
2022/06/02 06:29:00;;;;;;;40.40;18.65;;;;;;;20.39;49.75;93606.13;5027057;28;20048;-88
2022/06/02 06:31:54;;;;;;;41.78;16.23;;;;;;;20.29;50.16;93604.25;5024549;28;20078;-92
2022/06/02 06:34:46;;;;;;;55.83;18.95;;;;;;;20.40;49.77;93598.66;5032562;28;20040;-92
2022/06/02 06:37:40;;;;;;;65.47;23.65;;;;;;;20.42;49.81;93602.38;5025485;28;20087;-90
2022/06/02 06:40:32;;;;;;;53.17;19.88;;;;;;;20.36;49.92;93615.38;5038087;28;20410;-90
2022/06/02 06:43:40;;;;;;;81.20;22.40;;;;;;;20.44;49.59;93621.06;5023231;28;20059;-91
2022/06/02 06:46:36;;;;;;;59.88;22.50;;;;;;;20.39;49.72;93617.13;5043757;28;20062;-90
2022/06/02 06:49:37;;;;;;;75.70;23.33;;;;;;;20.40;49.66;93615.88;5032973;28;20036;-88
2022/06/02 06:52:17;;;;;;;70.38;22.63;;;;;;;20.38;49.55;93631.38;5054913;28;20614;-90
2022/06/02 06:55:11;;;;;;;101.82;29.52;;;;;;;20.40;49.85;93631.59;5042195;28;20059;-91
2022/06/02 06:57:53;;;;;;;163.10;64.35;;;;;;;20.39;49.84;93638.34;5037393;28;20077;-91
2022/06/02 07:00:21;;;;;;;76.90;27.42;;;;;;;20.46;49.87;93629.53;5010166;28;20072;-89
2022/06/02 07:03:07;;;;;;;96.78;32.05;;;;;;;20.43;49.84;93645.03;5048203;28;20041;-92
2022/06/02 07:05:38;;;;;;;197.77;44.30;;;;;;;20.47;49.66;93631.00;5018717;28;20046;-90
2022/06/02 07:08:15;;;;;;;128.27;41.60;;;;;;;20.45;49.82;93628.78;5027247;28;20077;-90
2022/06/02 07:11:08;;;;;;;103.15;42.17;;;;;;;20.40;49.61;93639.84;5066735;28;20114;-91
2022/06/02 07:13:44;;;;;;;102.43;48.28;;;;;;;20.42;49.63;93634.56;5034036;28;20032;-92
2022/06/02 07:16:33;;;;;;;83.70;40.70;;;;;;;20.43;49.88;93630.56;5010620;28;20032;-91
2022/06/02 07:19:12;;;;;;;59.90;31.15;;;;;;;20.41;50.12;93642.06;5017416;28;20060;-91
2022/06/02 07:21:49;;;;;;;81.72;39.28;;;;;;;20.39;50.00;93641.84;5017300;28;20044;-91
2022/06/02 07:24:47;;;;;;;60.55;31.55;;;;;;;20.41;50.05;93642.06;5013715;28;20041;-89
2022/06/02 07:27:47;;;;;;;48.38;25.95;;;;;;;20.41;50.19;93636.56;5036346;28;20049;-91
2022/06/02 07:31:01;;;;;;;67.93;23.70;;;;;;;20.37;50.30;93629.88;5040303;28;20040;-91
2022/06/02 07:33:28;;;;;;;67.32;28.77;;;;;;;20.47;50.33;93636.50;4965727;28;20043;-88
2022/06/02 07:36:03;;;;;;;105.78;33.95;;;;;;;20.46;50.20;93624.03;4974281;28;20121;-88
2022/06/02 07:38:38;;;;;;;160.70;42.88;;;;;;;20.45;50.18;93633.53;4976429;28;20057;-92
2022/06/02 07:41:45;;;;;;;155.20;42.75;;;;;;;20.47;49.88;93634.50;4980796;28;20108;-93
2022/06/02 07:44:32;;;;;;;117.90;39.33;;;;;;;20.46;50.08;93627.53;4945846;28;20145;-88
2022/06/02 07:47:29;;;;;;;100.65;37.67;;;;;;;20.49;50.10;93637.47;4972752;28;20034;-92
2022/06/02 07:50:09;;;;;;;68.78;27.10;;;;;;;20.46;50.13;93638.50;4974246;28;20054;-88
2022/06/02 07:52:52;;;;;;;69.72;30.15;;;;;;;20.48;49.98;93638.00;4971737;28;20059;-92
2022/06/02 07:55:27;;;;;;;64.15;27.75;;;;;;;20.51;49.79;93643.19;4978540;28;20046;-91
2022/06/02 07:58:30;;;;;;;64.93;27.90;;;;;;;20.53;49.73;93650.91;4962731;28;20061;-91
2022/06/02 08:01:20;;;;;;;53.33;22.27;;;;;;;20.51;49.92;93643.19;4970697;28;20042;-91
2022/06/02 08:03:47;;;;;;;49.90;19.38;;;;;;;20.55;49.83;93642.16;4958539;28;20058;-90
2022/06/02 08:06:39;;;;;;;59.97;20.40;;;;;;;20.50;49.43;93649.22;4949894;28;20047;-91
2022/06/02 08:09:33;;;;;;;60.50;21.73;;;;;;;20.61;49.85;93634.56;4914483;28;20034;-93
2022/06/02 08:12:17;;;;;;;52.33;22.17;;;;;;;20.66;49.50;93642.00;4998622;28;20041;-90
2022/06/02 08:15:13;;;;;;;44.80;19.83;;;;;;;20.65;49.21;93654.25;5008695;28;20038;-88
2022/06/02 08:18:12;;;;;;;49.67;27.15;;;;;;;20.66;49.42;93659.22;5010597;28;21923;-90
2022/06/02 08:20:46;;;;;;;60.60;30.70;;;;;;;20.68;49.28;93656.72;4999496;28;20141;-90
2022/06/02 08:23:14;;;;;;;61.05;32.00;;;;;;;20.68;49.19;93656.72;4971205;28;20066;-92
2022/06/02 08:25:58;;;;;;;96.32;36.53;;;;;;;20.68;48.96;93650.47;5007543;28;20056;-94
2022/06/02 08:28:34;;;;;;;99.32;37.08;;;;;;;20.71;49.16;93657.69;4978175;28;20125;-90
2022/06/02 08:31:31;;;;;;;154.05;51.58;;;;;;;20.72;49.08;93657.16;4994692;28;20046;-90
2022/06/02 08:34:03;;;;;;;145.75;48.92;;;;;;;20.76;49.00;93663.09;5001984;28;20049;-91
2022/06/02 08:36:43;;;;;;;115.35;38.78;;;;;;;20.75;48.99;93656.13;5055867;28;20080;-91
2022/06/02 08:39:17;;;;;;;137.63;40.72;;;;;;;20.73;48.96;93652.41;5031843;28;20095;-87
2022/06/02 08:41:55;;;;;;;146.43;40.03;;;;;;;20.70;49.18;93661.69;5044626;28;20121;-89
2022/06/02 08:44:38;;;;;;;81.13;25.55;;;;;;;20.67;49.28;93649.72;5045586;28;20168;-90
2022/06/02 08:47:04;;;;;;;50.40;19.75;;;;;;;20.72;49.25;93651.66;5049156;28;20094;-91
2022/06/02 08:49:59;;;;;;;76.97;24.02;;;;;;;20.64;49.43;93658.25;5048467;28;20099;-90
2022/06/02 08:53:03;;;;;;;45.50;16.60;;;;;;;20.70;49.33;93656.19;5032842;28;20040;-91
2022/06/02 08:55:49;;;;;;;59.17;17.38;;;;;;;20.63;49.32;93665.75;5047748;28;20114;-90
2022/06/02 08:58:52;;;;;;;43.80;16.33;;;;;;;20.62;49.31;93667.00;5049814;28;20048;-91
2022/06/02 09:01:31;;;;;;;51.88;13.88;;;;;;;20.67;49.39;93671.69;5048942;28;20033;-91
2022/06/02 09:04:30;;;;;;;39.45;14.52;;;;;;;20.66;49.07;93658.47;5027375;28;20040;-92
2022/06/02 09:07:20;;;;;;;39.75;12.95;;;;;;;20.65;49.87;93673.47;5016933;28;20041;-89
2022/06/02 09:10:02;;;;;;;49.95;16.05;;;;;;;20.71;49.97;93679.66;5047012;28;20060;-93
2022/06/02 09:13:07;;;;;;;57.83;17.15;;;;;;;20.69;50.00;93685.66;5042648;28;20136;-92
2022/06/02 09:16:01;;;;;;;46.17;18.23;;;;;;;20.67;50.22;93684.69;5051553;28;20049;-92
2022/06/02 09:18:56;;;;;;;69.68;22.35;;;;;;;20.67;50.14;93679.94;5048932;28;20037;-92
2022/06/02 09:21:38;;;;;;;86.85;24.27;;;;;;;20.70;49.98;93684.41;5048374;28;20048;-94
2022/06/02 09:24:27;;;;;;;89.88;22.40;;;;;;;20.65;49.56;93685.22;5021107;28;20063;-91
2022/06/02 09:27:24;;;;;;;85.15;22.92;;;;;;;20.69;49.23;93685.66;5014435;28;20507;-94
2022/06/02 09:30:11;;;;;;;81.65;22.13;;;;;;;20.73;49.27;93690.88;5031418;28;20049;-89
2022/06/02 09:32:53;;;;;;;63.85;20.58;;;;;;;20.81;49.36;93691.75;5034829;28;20037;-92
2022/06/02 09:35:35;;;;;;;53.00;21.10;;;;;;;20.86;49.08;93688.19;5032545;28;20037;-91
2022/06/02 09:38:06;;;;;;;58.65;21.77;;;;;;;20.88;49.28;93683.66;5034892;28;20038;-90
2022/06/02 09:40:36;;;;;;;;;;;;;;;20.91;49.04;93687.38;5051224;28;20132;-91
2022/06/02 09:43:15;;;;;;;51.60;20.80;;;;;;;20.91;49.16;93689.38;5034948;28;19921;-93
2022/06/02 09:46:07;;;;;;;83.63;25.05;;;;;;;20.95;49.05;93685.06;5056492;28;20040;-92
2022/06/02 09:48:42;;;;;;;61.65;21.73;;;;;;;20.94;49.10;93689.09;5046809;28;20057;-92
2022/06/02 09:51:29;;;;;;;49.95;22.02;;;;;;;21.00;49.24;93686.25;5026749;28;20540;-89
2022/06/02 09:54:03;;;;;;;54.88;23.35;;;;;;;21.02;49.27;93694.72;5043749;28;20574;-92
2022/06/02 09:56:29;;;;;;;139.65;41.00;;;;;;;21.07;49.15;93697.38;5050208;28;20053;-92
2022/06/02 09:59:17;;;;;;;117.93;38.85;;;;;;;21.04;49.36;93692.94;5047018;28;20044;-92
2022/06/02 10:02:01;;;;;;;124.85;44.38;;;;;;;21.08;49.24;93696.13;5031663;28;20041;-90
2022/06/02 10:04:54;;;;;;;123.05;64.20;;;;;;;21.08;49.21;93690.63;5044392;28;20067;-91
2022/06/02 10:07:40;;;;;;;116.90;43.83;;;;;;;21.06;48.97;93689.66;5047315;28;20091;-92
2022/06/02 10:10:17;;;;;;;87.95;33.25;;;;;;;21.03;48.79;93688.69;5045682;28;20064;-92
2022/06/02 10:13:06;;;;;;;88.00;29.80;;;;;;;21.05;48.77;93691.66;5024482;28;20560;-92
2022/06/02 10:16:03;;;;;;;469.40;418.60;;;;;;;21.00;48.79;93692.47;5038247;28;20053;-91
2022/06/02 10:18:43;;;;;;;342.00;292.33;;;;;;;21.01;48.91;93691.22;5048149;28;20543;-93
2022/06/02 10:21:31;;;;;;;104.68;91.43;;;;;;;21.06;49.03;93692.41;5036708;28;20114;-92
2022/06/02 10:24:34;;;;;;;31.38;15.40;;;;;;;21.08;48.51;93692.63;5041395;28;20040;-92
2022/06/02 10:27:03;;;;;;;30.40;20.00;;;;;;;21.02;48.59;93689.94;5053927;28;20131;-92
2022/06/02 10:29:56;;;;;;;110.90;83.93;;;;;;;20.96;48.92;93699.56;5056075;28;20045;-93
2022/06/02 10:32:50;;;;;;;27.67;18.02;;;;;;;20.96;48.71;93700.31;5058670;28;20037;-92
2022/06/02 10:35:45;;;;;;;27.95;15.68;;;;;;;21.00;48.97;93700.72;5042063;28;20044;-93
2022/06/02 10:38:29;;;;;;;28.20;14.00;;;;;;;21.00;48.96;93702.75;5038733;28;20104;-93
2022/06/02 10:41:18;;;;;;;19.67;13.07;;;;;;;20.99;48.91;93710.25;5037362;28;20060;-93
2022/06/02 10:44:13;;;;;;;19.50;14.30;;;;;;;20.97;48.85;93701.78;5053857;28;20254;-93
2022/06/02 10:46:51;;;;;;;20.70;12.32;;;;;;;20.97;48.70;93707.28;5019434;28;20045;-94
2022/06/02 10:49:26;;;;;;;20.25;11.93;;;;;;;20.98;48.67;93705.28;5031037;28;20068;-92
2022/06/02 10:52:32;;;;;;;17.65;12.10;;;;;;;20.98;48.67;93711.53;5052022;28;20487;-93
2022/06/02 10:55:18;;;;;;;41.90;15.13;;;;;;;21.02;48.55;93713.94;5053727;28;20041;-94
2022/06/02 10:58:09;;;;;;;53.38;15.63;;;;;;;21.00;48.62;93708.25;5042638;28;20063;-94
2022/06/02 11:00:51;;;;;;;53.17;18.75;;;;;;;20.99;48.50;93701.28;5034867;28;20041;-93
2022/06/02 11:03:55;;;;;;;48.72;20.80;;;;;;;20.98;48.31;93708.03;5039269;28;20688;-94
2022/06/02 11:06:48;;;;;;;69.72;27.10;;;;;;;20.97;48.37;93704.53;5049523;28;20072;-94
2022/06/02 11:09:45;;;;;;;110.07;43.10;;;;;;;20.99;48.02;93696.50;5053000;28;20040;-93
2022/06/02 11:12:24;;;;;;;89.07;42.03;;;;;;;20.97;47.60;93699.03;5060738;28;20434;-92
2022/06/02 11:15:09;;;;;;;95.28;46.65;;;;;;;20.96;47.58;93703.03;5054627;28;20132;-91
2022/06/02 11:17:41;;;;;;;102.20;47.42;;;;;;;20.97;47.39;93701.03;5045571;28;20063;-93
2022/06/02 11:20:34;;;;;;;87.85;42.90;;;;;;;20.99;47.40;93702.00;5043724;28;20460;-94
2022/06/02 11:23:18;;;;;;;148.35;74.68;;;;;;;20.98;47.70;93699.78;5020667;28;20092;-94
2022/06/02 11:26:13;;;;;;;147.70;73.20;;;;;;;20.98;47.55;93702.53;5009050;28;20131;-94
2022/06/02 11:28:42;;;;;;;134.27;65.65;;;;;;;21.01;47.56;93699.47;4985059;28;20060;-93
2022/06/02 11:31:17;;;;;;;114.78;54.95;;;;;;;20.99;47.72;93693.03;5033402;28;20108;-94
2022/06/02 11:34:21;;;;;;;98.82;51.38;;;;;;;21.00;47.01;93691.75;5032465;28;20049;-93
2022/06/02 11:37:02;;;;;;;113.13;56.03;;;;;;;20.99;47.12;93690.28;5042173;28;20045;-93
2022/06/02 11:39:37;;;;;;;115.85;57.65;;;;;;;20.98;46.78;93683.28;5037761;28;20050;-93
2022/06/02 11:42:27;;;;;;;148.15;77.97;;;;;;;20.98;46.98;93678.53;5030049;28;20045;-93
2022/06/02 11:45:03;;;;;;;157.35;69.68;;;;;;;21.02;46.75;93680.97;5023427;28;20123;-92
2022/06/02 11:47:51;;;;;;;186.55;74.15;;;;;;;21.01;47.09;93673.97;5031858;28;20451;-93
2022/06/02 11:50:47;;;;;;;229.15;84.28;;;;;;;21.01;47.00;93671.97;5005445;28;20049;-92
2022/06/02 11:53:12;;;;;;;213.95;83.97;;;;;;;21.07;46.84;93675.41;5031921;28;20046;-92
2022/06/02 11:56:15;;;;;;;207.93;87.55;;;;;;;21.04;47.06;93676.44;5031959;28;20097;-94
2022/06/02 11:58:52;;;;;;;207.25;93.38;;;;;;;21.02;46.89;93684.44;5019476;28;20049;-91
2022/06/02 12:01:47;;;;;;;221.60;102.53;;;;;;;21.04;47.07;93678.44;5031411;28;20045;-90
2022/06/02 12:04:37;;;;;;;236.13;114.95;;;;;;;21.02;46.93;93678.97;5031131;28;20113;-91
2022/06/02 12:07:14;;;;;;;224.30;116.57;;;;;;;21.05;46.63;93675.16;5010665;28;20029;-90
2022/06/02 12:09:55;;;;;;;211.18;109.35;;;;;;;21.08;46.77;93674.13;4996576;28;20492;-91
2022/06/02 12:12:29;;;;;;;187.95;95.70;;;;;;;21.07;46.89;93675.41;5036319;28;20037;-91
2022/06/02 12:15:01;;;;;;;221.07;101.15;;;;;;;21.10;47.08;93682.59;5028390;28;20073;-91
2022/06/02 12:17:32;;;;;;;236.35;103.22;;;;;;;21.10;46.99;93682.59;5030223;28;20029;-90
2022/06/02 12:20:06;;;;;;;277.33;110.28;;;;;;;21.12;47.39;93682.81;5027722;28;20037;-91
2022/06/02 12:22:38;;;;;;;292.75;116.95;;;;;;;21.18;47.06;93691.00;5036506;28;20048;-89
2022/06/02 12:25:16;;;;;;;270.23;119.03;;;;;;;21.17;47.20;93676.50;5041208;28;20045;-90
2022/06/02 12:27:46;;;;;;;237.13;106.78;;;;;;;21.23;47.15;93665.44;5037891;28;20053;-91
2022/06/02 12:30:30;;;;;;;225.02;117.35;;;;;;;21.22;46.82;93665.97;4995853;28;20041;-90
2022/06/02 12:33:05;;;;;;;203.55;100.25;;;;;;;21.22;47.29;93671.47;5041313;28;20397;-89
2022/06/02 12:35:50;;;;;;;137.85;64.35;;;;;;;21.18;46.88;93675.25;5015792;28;20512;-90
2022/06/02 12:38:35;;;;;;;134.25;64.75;;;;;;;21.28;46.91;93672.88;5014948;28;20113;-90
2022/06/02 12:41:34;;;;;;;128.52;59.88;;;;;;;21.36;46.77;93678.50;5025378;28;20034;-90
2022/06/02 12:44:30;;;;;;;209.52;124.22;;;;;;;21.46;46.99;93671.31;5038829;28;20087;-90